WetterOnline ( https://www.wetteronline.ch )

Wetter aktuell Pinneberg

Aktuelles Wetter: Quickborn (17m)

6-stündlich | Neueste Meldungen
Ortszeit Temperatur Wetter
Do, 24.10. 2:00 11.7° C bedeckt
Mi, 23.10. 20:00 12.5° C fast wolkenlos
Mi, 23.10. 14:00 14.1° C bewölkt
Mi, 23.10. 8:00 9.7° C bedeckt
Mi, 23.10. 2:00 10.5° C bedeckt
Di, 22.10. 20:00 12.7° C bedeckt
Di, 22.10. 14:00 13.3° C bedeckt
Di, 22.10. 8:00 11.1° C bedeckt
Ortszeit Temperatur Wetter
Do, 24.10. 2:30 11.8° C bedeckt
Do, 24.10. 2:20 11.8° C bedeckt
Do, 24.10. 2:10 11.7° C bedeckt
Do, 24.10. 2:00 11.7° C bedeckt
Do, 24.10. 1:40 11.5° C bedeckt
Do, 24.10. 1:30 11.8° C bedeckt
Do, 24.10. 1:00 11.7° C bewölkt
Do, 24.10. 0:30 11.8° C wolkig
Do, 24.10. 0:00 11.9° C leicht bewölkt
Mi, 23.10. 23:30 11.7° C wolkig
Ortszeit Relative Feuchte Sichtweite
Do, 24.10. 2:00 95% 5.0 km
Mi, 23.10. 20:00 85% 15 km
Mi, 23.10. 14:00 73% 14 km
Mi, 23.10. 8:00 97% 3.7 km
Mi, 23.10. 2:00 95% 6 km
Di, 22.10. 20:00 86% 16 km
Di, 22.10. 14:00 79% 23 km
Di, 22.10. 8:00 85% 35 km
Ortszeit Relative Feuchte Sichtweite
Do, 24.10. 2:30 96% 4.1 km
Do, 24.10. 2:20 96% -
Do, 24.10. 2:10 96% -
Do, 24.10. 2:00 95% 5.0 km
Do, 24.10. 1:40 95% -
Do, 24.10. 1:30 95% 5.0 km
Do, 24.10. 1:00 95% 6 km
Do, 24.10. 0:30 94% 7 km
Do, 24.10. 0:00 93% 8 km
Mi, 23.10. 23:30 92% 9 km
Ortszeit Niederschlagsmenge Niederschlagsart
Do, 24.10. 2:00 0.0 l/m2 in 6 Std. -
Mi, 23.10. 20:00 0.0 l/m2 in 12 Std. -
Mi, 23.10. 14:00 0.0 l/m2 in 6 Std. -
Mi, 23.10. 8:00 0.0 l/m2 in 12 Std. -
Mi, 23.10. 2:00 0.0 l/m2 in 6 Std. -
Di, 22.10. 20:00 0.0 l/m2 in 12 Std. -
Di, 22.10. 14:00 0.0 l/m2 in 6 Std. -
Di, 22.10. 8:00 0.1 l/m2 in 12 Std. -
Ortszeit Niederschlagsmenge Niederschlagsart
Do, 24.10. 2:30 0.0 l/m2 in 1 Std. -
Do, 24.10. 2:20 keine Meldung -
Do, 24.10. 2:10 keine Meldung -
Do, 24.10. 2:00 0.0 l/m2 in 1 Std. -
Do, 24.10. 1:40 keine Meldung -
Do, 24.10. 1:30 0.0 l/m2 in 1 Std. -
Do, 24.10. 1:00 0.0 l/m2 in 1 Std. -
Do, 24.10. 0:30 0.0 l/m2 in 1 Std. -
Do, 24.10. 0:00 0.0 l/m2 in 1 Std. -
Mi, 23.10. 23:30 0.0 l/m2 in 1 Std. -
Ortszeit Stärke Spitze Richtung
km/h Bft. km/h Grad Sektor
Do, 24.10. 2:00 9 2 19 120° SO
Mi, 23.10. 20:00 11 2 18 110° O
Mi, 23.10. 14:00 11 2 17 140° SO
Mi, 23.10. 8:00 4 1 11 170° S
Mi, 23.10. 2:00 7 2 11 170° S
Di, 22.10. 20:00 6 1 28 220° SW
Di, 22.10. 14:00 13 3 28 230° SW
Di, 22.10. 8:00 7 2 17 200° S
Ortszeit Stärke Spitze Richtung
km/h Bft. km/h Grad Sektor
Do, 24.10. 2:30 7 2 14 130° SO
Do, 24.10. 2:20 7 2 - 130° SO
Do, 24.10. 2:10 9 2 - 110° O
Do, 24.10. 2:00 9 2 15 120° SO
Do, 24.10. 1:40 7 2 - 150° SO
Do, 24.10. 1:30 9 2 15 130° SO
Do, 24.10. 1:00 7 2 11 130° SO
Do, 24.10. 0:30 7 2 11 120° SO
Do, 24.10. 0:00 6 1 19 140° SO
Mi, 23.10. 23:30 11 2 18 120° SO
Ortszeit Untergrenze Bedeckung Gattung
total tief tief mittel hoch
Do, 24.10. 2:00 60 m 8/8 8/8 - - -
Mi, 23.10. 20:00 3000 m 1/8 1/8 - - -
Mi, 23.10. 14:00 2400 m 7/8 7/8 - - -
Mi, 23.10. 8:00 60 m 8/8 8/8 - - -
Mi, 23.10. 2:00 60 m 8/8 8/8 - - -
Di, 22.10. 20:00 930 m 8/8 8/8 - - -
Di, 22.10. 14:00 510 m 8/8 8/8 - - -
Di, 22.10. 8:00 1050 m 8/8 8/8 - - -
Ortszeit Bedeckungsgrad in Achtel und Wolkenuntergrenze
Do, 24.10. 2:30 1(30m) 8(240m) 8(10500m)
Do, 24.10. 2:20 1(30m) 8(240m) 8(10500m)
Do, 24.10. 2:10 3(60m) 8(240m) 8(5400m)
Do, 24.10. 2:00 6(60m) 8(270m) 8(5400m)
Do, 24.10. 1:40 7(60m) 8(270m) 8(5400m)
Do, 24.10. 1:30 8(60m) 8(6000m) 8(10500m)
Do, 24.10. 1:00 7(60m) 7(6000m) 7(12000m)
Do, 24.10. 0:30 5(60m)
Do, 24.10. 0:00 2(60m)
Mi, 23.10. 23:30 8(10500m) 6(10500m)
Ortszeit Luftdruck NN (hPa) Tendenz (hPa in 3 Std.)
Do, 24.10. 2:00 1011 - 1,8
Mi, 23.10. 20:00 1015 - 1,4
Mi, 23.10. 14:00 1019 - 2,4
Mi, 23.10. 8:00 1021 - 0,4
Mi, 23.10. 2:00 1023 - 0,3
Di, 22.10. 20:00 1024 + 0,9
Di, 22.10. 14:00 1023 + 0,2
Di, 22.10. 8:00 1021 + 0,5
Ortszeit Luftdruck NN (hPa) Tendenz (hPa in 3 Std.)
Do, 24.10. 2:30 1011 - 1,1
Do, 24.10. 2:20 1011 keine Meldung
Do, 24.10. 2:10 1011 keine Meldung
Do, 24.10. 2:00 1011 - 1,8
Do, 24.10. 1:40 1011 keine Meldung
Do, 24.10. 1:30 1011 - 1,8
Do, 24.10. 1:00 1012 - 1,7
Do, 24.10. 0:30 1012 - 2,3
Do, 24.10. 0:00 1012 - 2,2
Mi, 23.10. 23:30 1012 - 2,5
Ortszeit Schneehöhe (cm)
Do, 24.10. 2:00 0
Mi, 23.10. 20:00 0
Mi, 23.10. 14:00 0
Mi, 23.10. 8:00 0
Mi, 23.10. 2:00 0
Di, 22.10. 20:00 0
Di, 22.10. 14:00 0
Di, 22.10. 8:00 0
Ortszeit Schneehöhe (cm)
Do, 24.10. 2:30 0
Do, 24.10. 2:20 0
Do, 24.10. 2:10 0
Do, 24.10. 2:00 0
Do, 24.10. 1:40 0
Do, 24.10. 1:30 0
Do, 24.10. 1:00 0
Do, 24.10. 0:30 0
Do, 24.10. 0:00 0
Mi, 23.10. 23:30 0
Link zu dieser Seite / Seite empfehlen

Das Wetter in ...